Time;durP1;ratioP1;P1;durP2;ratioP2;P2;SDS_P1;SDS_P2;PMS_P1;PMS_P2;Temp;Humidity;BMP_temperature;BMP_pressure;BME280_temperature;BME280_humidity;BME280_pressure;Samples;Min_cycle;Max_cycle;Signal;HPM_P1;HPM_P2
2022/08/13 00:00:24;;;;;;;;;7.00;7.00;;;;;25.58;53.17;100494.28;146606;633;45021;-68
2022/08/13 00:03:21;;;;;;;;;6.75;6.50;;;;;25.59;53.13;100496.03;146602;661;46014;-66
2022/08/13 00:09:42;;;;;;;;;6.33;6.33;;;;;25.60;53.29;100489.81;146633;630;45912;-67
2022/08/13 00:13:00;;;;;;;;;8.00;8.00;;;;;25.58;52.35;100492.50;146634;644;45010;-67
2022/08/13 00:15:54;;;;;;;;;7.00;7.00;;;;;25.58;52.83;100484.53;146634;655;44914;-67
2022/08/13 00:18:50;;;;;;;;;7.00;7.00;;;;;25.56;52.78;100483.66;146633;624;45010;-67
2022/08/13 00:21:49;;;;;;;;;7.00;6.00;;;;;25.60;51.79;100487.16;146628;571;45915;-68
2022/08/13 00:25:25;;;;;;;;;;;;;;;;;;;;;
2022/08/13 00:28:39;;;;;;;;;7.00;7.00;;;;;25.72;51.87;100494.94;146631;603;45913;-70
2022/08/13 00:31:38;;;;;;;;;7.75;7.00;;;;;25.68;52.37;100487.94;146633;625;44020;-71
2022/08/13 00:34:36;;;;;;;;;5.67;5.00;;;;;25.62;52.10;100488.03;146629;587;45015;-69
2022/08/13 00:37:32;;;;;;;;;7.25;6.25;;;;;25.65;51.43;100495.06;146634;624;44021;-68
2022/08/13 00:40:35;;;;;;;;;6.00;6.00;;;;;25.73;51.36;100493.16;146630;690;45914;-68
2022/08/13 00:43:43;;;;;;;;;6.25;6.25;;;;;24.85;50.76;100329.84;146632;615;44029;-68
2022/08/13 00:46:41;;;;;;;;;4.67;4.67;;;;;25.96;50.98;100495.53;146628;609;46012;-68
2022/08/13 00:49:44;;;;;;;;;7.00;7.00;;;;;26.08;50.64;100494.47;146631;572;45010;-68
2022/08/13 00:52:52;;;;;;;;;7.50;5.75;;;;;26.17;50.49;100494.31;146631;658;44915;-69
2022/08/13 00:55:52;;;;;;;;;6.00;6.00;;;;;26.22;50.07;100481.81;146632;667;44029;-69
2022/08/13 00:58:56;;;;;;;;;6.50;5.25;;;;;26.29;50.64;100479.91;146631;616;44915;-68
2022/08/13 01:01:54;;;;;;;;;5.00;5.00;;;;;26.32;50.47;100474.53;146634;650;45014;-69
2022/08/13 01:04:51;;;;;;;;;5.00;5.00;;;;;26.22;50.66;100464.06;146614;670;46014;-70
2022/08/13 01:07:45;;;;;;;;;7.00;7.00;;;;;26.10;51.47;100463.41;146606;595;45020;-69
2022/08/13 01:10:41;;;;;;;;;7.75;6.00;;;;;26.01;51.55;100468.00;146602;686;46012;-69
2022/08/13 01:13:39;;;;;;;;;7.25;6.50;;;;;25.97;51.84;100470.69;146607;572;45032;-70
2022/08/13 01:16:46;;;;;;;;;7.00;5.50;;;;;25.90;51.75;100463.75;146603;576;45914;-71
2022/08/13 01:19:49;;;;;;;;;6.00;6.00;;;;;25.82;51.74;100463.84;146603;566;46010;-69
2022/08/13 01:22:45;;;;;;;;;7.25;7.25;;;;;25.79;52.17;100463.84;146603;646;45914;-69
2022/08/13 01:25:37;;;;;;;;;6.33;6.33;;;;;25.72;52.92;100472.81;146606;567;45914;-68
2022/08/13 01:28:33;;;;;;;;;5.33;5.33;;;;;25.64;52.44;100480.03;146602;622;46014;-68
2022/08/13 01:31:39;;;;;;;;;6.75;5.00;;;;;25.60;52.74;100480.97;146607;628;45020;-68
2022/08/13 01:35:00;;;;;;;;;7.33;7.33;;;;;24.61;51.82;100322.19;146603;738;46014;-68
2022/08/13 01:38:00;;;;;;;;;5.50;5.50;;;;;25.53;52.51;100473.09;146607;600;45020;-68
2022/08/13 01:41:01;;;;;;;;;5.33;4.00;;;;;25.54;52.82;100469.53;146603;574;46012;-68
2022/08/13 01:44:11;;;;;;;;;7.00;6.75;;;;;25.64;51.91;100483.56;146604;626;46010;-66
2022/08/13 01:50:49;;;;;;;;;;;;;;;;;;;;;
2022/08/13 01:53:46;;;;;;;;;5.25;5.25;;;;;25.96;51.68;100472.47;146603;645;45913;-68
2022/08/13 01:56:39;;;;;;;;;6.25;5.00;;;;;25.99;52.38;100476.88;146607;610;45021;-68
2022/08/13 01:59:43;;;;;;;;;5.33;5.33;;;;;25.87;51.94;100472.62;146604;584;45914;-70
2022/08/13 02:02:38;;;;;;;;;6.50;6.00;;;;;25.76;52.29;100471.88;146604;613;45914;-71
2022/08/13 02:05:33;;;;;;;;;7.67;6.00;;;;;25.64;52.63;100472.97;146603;571;45914;-71
2022/08/13 02:08:34;;;;;;;;;9.00;8.00;;;;;25.48;52.32;100466.09;146605;632;46010;-70
2022/08/13 02:11:26;;;;;;;;;4.75;4.75;;;;;25.38;52.94;100475.97;146601;587;46014;-69
2022/08/13 02:14:23;;;;;;;;;7.00;5.00;;;;;25.40;52.81;100466.22;146607;600;45020;-69
2022/08/13 02:17:27;;;;;;;;;7.75;7.00;;;;;25.47;52.22;100472.31;146602;575;46012;-70
2022/08/13 02:20:21;;;;;;;;;4.67;4.67;;;;;25.47;52.34;100472.31;146606;591;45021;-69
2022/08/13 02:23:24;;;;;;;;;5.50;5.50;;;;;25.51;51.76;100471.34;146602;646;45914;-68
2022/08/13 02:26:34;;;;;;;;;;;;;;;;;;;;;
2022/08/13 02:29:42;;;;;;;;;8.00;8.00;;;;;25.30;51.03;100469.91;146603;621;45913;-68
2022/08/13 02:32:44;;;;;;;;;6.00;6.00;;;;;25.19;51.23;100471.81;146607;575;45020;-68
2022/08/13 02:35:55;;;;;;;;;7.50;6.00;;;;;25.12;51.65;100468.31;146601;618;46014;-68
2022/08/13 02:38:50;;;;;;;;;7.50;6.50;;;;;25.10;51.86;100470.09;146607;619;45020;-67
2022/08/13 02:41:57;;;;;;;;;6.75;6.00;;;;;25.09;52.35;100460.41;146602;584;45913;-67
2022/08/13 02:45:02;;;;;;;;;7.50;7.50;;;;;25.06;52.25;100466.59;146607;617;45020;-68
2022/08/13 02:48:08;;;;;;;;;8.25;7.00;;;;;24.10;51.50;100304.22;146602;662;46913;-66
2022/08/13 02:51:20;;;;;;;;;7.75;6.75;;;;;25.11;52.88;100474.53;146605;564;45020;-67
2022/08/13 02:54:21;;;;;;;;;7.00;5.50;;;;;25.18;52.33;100470.06;146602;707;45912;-68
2022/08/13 02:57:23;;;;;;;;;8.25;8.00;;;;;25.27;52.29;100475.25;146607;637;45021;-69
2022/08/13 03:00:30;;;;;;;;;7.25;5.50;;;;;25.26;51.91;100471.69;146599;566;47912;-69
2022/08/13 03:03:41;;;;;;;;;;;;;;;;;;;;;
2022/08/13 03:06:43;;;;;;;;;7.50;7.00;;;;;25.33;52.18;100478.69;146603;634;45909;-69
2022/08/13 03:09:40;;;;;;;;;8.25;8.00;;;;;25.28;52.32;100474.34;146607;565;45020;-67
2022/08/13 03:12:36;;;;;;;;;7.50;7.25;;;;;25.23;52.45;100481.47;146603;569;45912;-70
2022/08/13 03:15:44;;;;;;;;;9.67;8.00;;;;;25.09;52.38;100458.63;146606;574;46014;-69
2022/08/13 03:18:48;;;;;;;;;7.33;7.33;;;;;25.17;52.81;100479.78;146604;636;45912;-70
2022/08/13 03:21:47;;;;;;;;;7.25;7.25;;;;;25.16;52.88;100479.78;146604;570;45020;-69
2022/08/13 03:24:39;;;;;;;;;8.33;6.33;;;;;25.10;53.33;100463.00;146604;579;45913;-69
2022/08/13 03:27:50;;;;;;;;;6.00;6.00;;;;;25.22;52.62;100477.94;146606;645;45022;-69
2022/08/13 03:30:43;;;;;;;;;6.00;6.00;;;;;25.28;53.71;100477.00;146601;689;46012;-67
2022/08/13 03:34:01;;;;;;;;;5.50;5.50;;;;;25.27;53.37;100476.12;146606;616;46010;-69
2022/08/13 03:36:58;;;;;;;;;5.33;5.00;;;;;25.22;53.99;100483.25;146602;565;46012;-70
2022/08/13 03:40:02;;;;;;;;;6.33;5.67;;;;;25.17;53.58;100486.84;146608;564;45050;-70
2022/08/13 03:42:56;;;;;;;;;6.00;6.00;;;;;25.08;54.02;100486.06;146603;581;45911;-69
2022/08/13 03:45:57;;;;;;;;;7.00;7.00;;;;;25.02;54.02;100472.84;146606;654;45021;-69
2022/08/13 03:49:01;;;;;;;;;6.75;5.25;;;;;25.03;53.45;100476.38;146603;572;45939;-68
2022/08/13 03:52:14;;;;;;;;;7.00;7.00;;;;;24.14;52.82;100308.63;146602;665;46010;-69
2022/08/13 03:55:43;;;;;;;;;;;;;;;;;;;;;
2022/08/13 03:58:50;;;;;;;;;6.25;6.25;;;;;24.23;52.41;100315.56;146604;595;46010;-68
2022/08/13 04:01:55;;;;;;;;;7.00;6.67;;;;;25.34;52.75;100474.25;146604;570;45913;-70
2022/08/13 04:05:00;;;;;;;;;8.25;7.00;;;;;25.45;52.16;100479.41;146605;635;46010;-69
2022/08/13 04:07:55;;;;;;;;;6.75;6.75;;;;;25.54;52.21;100479.28;146603;588;45912;-68
2022/08/13 04:10:51;;;;;;;;;6.00;6.00;;;;;25.61;52.34;100483.63;146607;706;45021;-68
2022/08/13 04:13:58;;;;;;;;;6.75;5.25;;;;;25.66;51.79;100487.06;146602;575;45913;-69
2022/08/13 04:17:10;;;;;;;;;6.75;6.75;;;;;25.73;51.96;100496.72;146605;681;45021;-68
2022/08/13 04:20:13;;;;;;;;;9.00;7.75;;;;;25.82;51.98;100502.81;146603;693;45911;-69
2022/08/13 04:23:09;;;;;;;;;9.25;9.00;;;;;25.84;51.90;100495.72;146604;610;46010;-68
2022/08/13 04:26:08;;;;;;;;;5.75;5.75;;;;;25.82;52.86;100493.06;146603;574;45913;-70
2022/08/13 04:29:13;;;;;;;;;7.75;7.25;;;;;25.75;52.65;100499.34;146605;708;45020;-68
2022/08/13 04:32:10;;;;;;;;;8.00;7.00;;;;;25.65;52.86;100495.94;146603;667;45912;-69
2022/08/13 04:35:22;;;;;;;;;6.00;6.00;;;;;25.61;52.39;100488.94;146609;632;45020;-69
2022/08/13 04:38:19;;;;;;;;;8.00;6.50;;;;;25.66;53.25;100496.81;146603;576;45913;-70
2022/08/13 04:41:21;;;;;;;;;7.25;7.25;;;;;25.77;52.95;100494.91;146607;632;45021;-69
2022/08/13 04:44:13;;;;;;;;;7.00;7.00;;;;;25.89;52.91;100494.75;146601;717;46012;-70
2022/08/13 04:47:11;;;;;;;;;7.00;7.00;;;;;25.96;52.35;100503.50;146607;656;45021;-70
2022/08/13 04:50:18;;;;;;;;;9.75;9.00;;;;;26.05;52.44;100489.19;146603;670;45912;-70
2022/08/13 04:53:41;;;;;;;;;8.75;8.00;;;;;26.17;52.02;100489.00;146604;583;46014;-71
2022/08/13 04:56:43;;;;;;;;;10.75;9.25;;;;;26.32;51.64;100493.16;146603;574;45932;-72
2022/08/13 04:59:39;;;;;;;;;7.25;7.25;;;;;26.31;51.05;100494.94;146607;576;45024;-70
2022/08/13 05:02:44;;;;;;;;;8.75;7.75;;;;;26.26;50.87;100504.75;146603;691;45913;-73
2022/08/13 05:05:43;;;;;;;;;6.50;6.50;;;;;26.21;50.95;100496.88;146607;569;45020;-67
2022/08/13 05:08:55;;;;;;;;;;;;;;;;;;;;;
2022/08/13 05:11:50;;;;;;;;;7.25;7.25;;;;;26.19;51.29;100495.13;146606;569;46010;-67
2022/08/13 05:14:46;;;;;;;;;7.00;7.00;;;;;26.33;51.65;100495.78;146602;690;46013;-70
2022/08/13 05:17:43;;;;;;;;;6.50;6.00;;;;;26.61;50.86;100496.22;146607;686;45021;-68
2022/08/13 05:20:36;;;;;;;;;8.00;8.00;;;;;26.90;50.53;100494.78;146603;593;45912;-69
2022/08/13 05:23:38;;;;;;;;;8.25;8.25;;;;;27.04;50.43;100487.41;146605;632;45021;-69
2022/08/13 05:26:47;;;;;;;;;7.00;6.00;;;;;27.12;50.22;100492.56;146601;632;46012;-68
2022/08/13 05:29:49;;;;;;;;;8.50;7.50;;;;;27.35;49.90;100497.41;146607;579;45021;-68
2022/08/13 05:32:50;;;;;;;;;6.50;6.25;;;;;27.64;49.18;100497.66;146603;698;45915;-67
2022/08/13 05:35:51;;;;;;;;;7.50;7.50;;;;;27.94;48.25;100492.56;146607;571;45020;-64
2022/08/13 05:38:49;;;;;;;;;8.00;8.00;;;;;28.16;47.77;100492.03;146602;597;45915;-68
2022/08/13 05:41:52;;;;;;;;;8.75;6.50;;;;;28.40;47.55;100486.12;146606;563;45020;-67
2022/08/13 05:44:55;;;;;;;;;7.00;6.75;;;;;28.66;46.54;100482.78;146603;589;45914;-68
2022/08/13 05:47:50;;;;;;;;;6.00;6.00;;;;;28.85;46.32;100487.56;146605;694;46010;-67
2022/08/13 05:50:51;;;;;;;;;8.50;8.00;;;;;29.02;46.02;100473.81;146602;622;45914;-66
2022/08/13 05:53:59;;;;;;;;;6.75;6.75;;;;;29.06;45.79;100475.44;146604;564;46010;-73
2022/08/13 05:57:03;;;;;;;;;9.25;8.50;;;;;28.87;45.87;100483.94;146602;669;46998;-69
2022/08/13 06:06:28;;;;;;;;;10.25;7.00;;;;;27.96;48.50;100474.75;146634;724;44020;-69
2022/08/13 06:09:25;;;;;;;;;7.50;7.50;;;;;27.81;48.59;100472.47;146630;573;45915;-68
2022/08/13 06:12:22;;;;;;;;;6.50;6.25;;;;;27.66;49.67;100468.31;146631;579;44027;-68
2022/08/13 06:15:25;;;;;;;;;5.75;5.00;;;;;27.63;49.62;100474.63;146630;601;45010;-69
2022/08/13 06:18:23;;;;;;;;;7.75;7.75;;;;;27.62;49.57;100466.66;146632;606;45010;-69
2022/08/13 06:21:19;;;;;;;;;7.00;7.00;;;;;27.65;49.82;100469.25;146631;572;44914;-69
2022/08/13 06:24:23;;;;;;;;;7.25;7.25;;;;;27.78;49.88;100473.41;146629;626;45010;-70
2022/08/13 06:27:15;;;;;;;;;9.75;9.75;;;;;27.85;49.53;100477.69;146632;649;45914;-68
2022/08/13 06:30:09;;;;;;;;;10.25;8.75;;;;;27.87;49.58;100481.16;146634;576;45010;-69
2022/08/13 06:33:10;;;;;;;;;9.75;9.00;;;;;27.90;48.92;100479.34;146624;563;47914;-69
2022/08/13 06:36:05;;;;;;;;;8.00;8.00;;;;;27.91;49.22;100481.97;146630;569;44028;-69
2022/08/13 06:39:09;;;;;;;;;8.50;8.50;;;;;27.94;49.05;100483.69;146631;663;44915;-69
2022/08/13 06:42:17;;;;;;;;;7.75;6.50;;;;;27.93;49.48;100482.81;146631;602;45030;-68
2022/08/13 06:45:21;;;;;;;;;8.25;8.25;;;;;27.96;49.09;100484.53;146629;601;45915;-69
2022/08/13 06:48:18;;;;;;;;;8.00;8.00;;;;;27.95;48.91;100481.00;146632;581;44020;-69
2022/08/13 06:51:14;;;;;;;;;8.00;8.00;;;;;27.95;48.88;100483.66;146629;592;45915;-69
2022/08/13 06:54:09;;;;;;;;;9.00;9.00;;;;;27.99;49.06;100489.78;146629;575;44020;-69
2022/08/13 06:57:06;;;;;;;;;8.00;7.00;;;;;28.02;48.91;100482.59;146631;600;44915;-69
2022/08/13 07:00:08;;;;;;;;;6.25;6.25;;;;;28.05;48.73;100494.97;146630;598;45010;-69
2022/08/13 07:03:05;;;;;;;;;9.50;9.50;;;;;28.14;48.66;100488.56;146631;713;45012;-68
2022/08/13 07:06:09;;;;;;;;;;;;;;;;;;;;;
2022/08/13 07:09:04;;;;;;;;;8.50;8.25;;;;;28.31;48.63;100496.97;146630;715;44912;-69
2022/08/13 07:12:05;;;;;;;;;8.00;7.25;;;;;28.33;48.01;100498.69;146633;741;45010;-68
2022/08/13 07:14:59;;;;;;;;;8.25;7.75;;;;;28.27;48.75;100492.66;146630;662;45915;-69
2022/08/13 07:17:57;;;;;;;;;8.00;7.25;;;;;28.18;48.63;100491.09;146632;564;44020;-70
2022/08/13 07:20:52;;;;;;;;;7.25;7.25;;;;;28.13;49.07;100494.78;146629;627;45914;-70
2022/08/13 07:23:47;;;;;;;;;8.25;8.00;;;;;28.04;48.74;100494.09;146633;590;44031;-71
2022/08/13 07:26:43;;;;;;;;;9.50;7.75;;;;;28.02;49.66;100493.25;146629;633;46012;-69
2022/08/13 07:29:44;;;;;;;;;9.00;9.00;;;;;27.97;48.93;100496.94;146632;579;45010;-70
2022/08/13 07:33:01;;;;;;;;;8.25;6.75;;;;;26.99;49.56;100345.59;146631;566;45012;-70
2022/08/13 07:36:02;;;;;;;;;8.75;8.00;;;;;27.91;49.76;100497.97;146633;582;45011;-72
2022/08/13 07:39:04;;;;;;;;;7.00;7.00;;;;;27.91;49.56;100489.97;146628;602;45914;-70
2022/08/13 07:42:00;;;;;;;;;8.00;8.00;;;;;28.00;49.15;100486.22;146633;600;45010;-70
2022/08/13 07:44:55;;;;;;;;;8.00;8.00;;;;;28.17;48.38;100504.47;146626;571;45915;-70
2022/08/13 07:48:02;;;;;;;;;8.00;6.75;;;;;28.53;48.29;100514.22;146631;576;45020;-70
2022/08/13 07:51:06;;;;;;;;;7.00;6.25;;;;;28.92;47.97;100513.19;146629;672;45012;-70
2022/08/13 07:54:12;;;;;;;;;6.00;6.00;;;;;29.27;46.10;100511.34;146630;589;44914;-70
2022/08/13 07:57:05;;;;;;;;;8.50;6.50;;;;;29.65;46.96;100512.88;146629;582;45015;-70
2022/08/13 08:00:01;;;;;;;;;8.00;8.00;;;;;30.11;44.94;100506.06;146631;596;44919;-70
2022/08/13 08:03:32;;;;;;;;;;;;;;;;;;;;;
2022/08/13 08:06:38;;;;;;;;;7.00;7.00;;;;;30.81;43.04;100518.87;146634;615;45010;-71
2022/08/13 08:09:34;;;;;;;;;9.75;7.75;;;;;30.98;42.93;100512.94;146628;606;45912;-70
2022/08/13 08:12:37;;;;;;;;;9.00;7.00;;;;;30.98;42.78;100515.59;146633;640;44021;-71
2022/08/13 08:15:44;;;;;;;;;6.75;6.25;;;;;31.00;43.12;100513.75;146628;706;45912;-71
2022/08/13 08:18:37;;;;;;;;;7.25;7.25;;;;;31.19;42.15;100504.09;146631;603;45011;-71
2022/08/13 08:21:36;;;;;;;;;8.25;7.75;;;;;31.24;42.94;100503.91;146632;723;44017;-71
2022/08/13 08:24:33;;;;;;;;;8.00;8.00;;;;;31.27;41.60;100501.13;146634;578;44020;-71
2022/08/13 08:27:32;;;;;;;;;8.75;8.25;;;;;31.23;42.30;100500.38;146634;569;45912;-70
2022/08/13 08:30:40;;;;;;;;;;;;;;;;;;;;;
2022/08/13 08:33:39;;;;;;;;;7.75;7.75;;;;;31.28;42.09;100484.13;146630;721;45910;-70
2022/08/13 08:36:32;;;;;;;;;8.50;8.50;;;;;31.32;42.12;100484.87;146635;575;45010;-71
2022/08/13 08:42:44;;;;;;;;;8.00;8.00;;;;;31.59;42.10;100469.53;146635;721;45014;-72
2022/08/13 08:45:43;;;;;;;;;12.00;9.50;;;;;31.69;41.06;100470.94;146634;577;45014;-71
2022/08/13 08:48:37;;;;;;;;;8.75;8.75;;;;;31.64;41.02;100464.88;146627;619;45014;-71
2022/08/13 08:51:44;;;;;;;;;11.00;10.50;;;;;31.50;41.55;100470.81;146632;581;45913;-71
2022/08/13 08:54:37;;;;;;;;;10.75;10.75;;;;;31.34;41.37;100449.09;146632;695;45010;-71
2022/08/13 08:57:36;;;;;;;;;9.50;9.50;;;;;31.48;41.39;100456.59;146625;593;46912;-70
2022/08/13 09:00:28;;;;;;;;;8.00;8.00;;;;;31.57;40.38;100453.53;146631;586;45917;-71
2022/08/13 09:03:33;;;;;;;;;8.75;8.75;;;;;31.65;40.27;100443.41;146630;625;45912;-70
2022/08/13 09:06:35;;;;;;;;;9.75;9.75;;;;;31.87;40.07;100453.22;146632;641;44021;-70
2022/08/13 09:09:31;;;;;;;;;9.50;9.50;;;;;32.08;39.71;100444.31;146630;631;45010;-70
2022/08/13 09:12:50;;;;;;;;;;;;;;;;;;;;;
2022/08/13 09:15:51;;;;;;;;;10.25;10.25;;;;;32.57;39.66;100444.91;146628;630;45014;-71
2022/08/13 09:18:50;;;;;;;;;10.50;10.50;;;;;32.86;40.16;100440.87;146633;592;44021;-71
2022/08/13 09:21:58;;;;;;;;;9.75;9.75;;;;;33.06;38.31;100450.75;146629;582;44913;-71
2022/08/13 09:25:02;;;;;;;;;10.75;10.75;;;;;32.98;39.84;100436.81;146630;662;45010;-70
2022/08/13 09:27:54;;;;;;;;;8.50;8.50;;;;;32.88;38.58;100432.78;146627;640;45017;-70
2022/08/13 09:30:59;;;;;;;;;9.75;9.75;;;;;32.80;38.27;100422.38;146632;650;44020;-71
2022/08/13 09:33:55;;;;;;;;;9.75;9.75;;;;;32.79;38.62;100426.00;146630;602;45912;-72
2022/08/13 09:37:11;;;;;;;;;8.75;7.50;;;;;32.88;39.40;100413.97;146631;570;44020;-72
2022/08/13 09:40:19;;;;;;;;;10.00;8.75;;;;;32.97;38.30;100408.22;146630;569;44912;-71
2022/08/13 09:43:25;;;;;;;;;10.25;10.00;;;;;33.00;38.80;100405.38;146633;634;44021;-70
2022/08/13 09:46:26;;;;;;;;;9.00;9.00;;;;;33.07;38.39;100397.91;146630;703;44912;-71
2022/08/13 09:49:25;;;;;;;;;10.00;8.25;;;;;33.24;37.87;100414.09;146629;574;45020;-71
2022/08/13 09:52:30;;;;;;;;;10.00;10.00;;;;;33.36;37.55;100407.25;146629;582;45012;-71
2022/08/13 09:55:29;;;;;;;;;11.50;10.50;;;;;33.42;37.18;100415.00;146631;717;44917;-71
2022/08/13 09:58:26;;;;;;;;;9.50;8.50;;;;;33.34;38.31;100415.41;146631;665;45012;-71
2022/08/13 10:01:21;;;;;;;;;12.00;11.75;;;;;33.18;37.80;100413.50;146633;607;45010;-71
2022/08/13 10:04:26;;;;;;;;;;;;;;;;;;;;;
2022/08/13 10:07:21;;;;;;;;;10.00;10.00;;;;;32.65;40.43;100425.78;146615;573;45020;-70
2022/08/13 10:10:17;;;;;;;;;8.75;8.75;;;;;32.48;40.69;100423.84;146611;592;46013;-71
2022/08/13 10:13:19;;;;;;;;;11.75;10.75;;;;;32.43;40.51;100410.63;146611;602;46014;-71
2022/08/13 10:16:46;;;;;;;;;15.25;14.00;;;;;32.47;41.42;100406.00;146614;575;45016;-70
2022/08/13 10:19:48;;;;;;;;;17.50;15.75;;;;;32.54;40.92;100401.22;146615;569;45021;-71
2022/08/13 10:22:51;;;;;;;;;12.25;11.50;;;;;32.59;40.93;100394.72;146611;582;45913;-70
2022/08/13 10:25:49;;;;;;;;;15.00;14.00;;;;;32.65;41.42;100402.47;146614;661;45021;-72
2022/08/13 10:28:48;;;;;;;;;10.50;10.00;;;;;32.73;41.39;100401.25;146612;669;45911;-72
2022/08/13 10:32:02;;;;;;;;;10.75;10.75;;;;;32.85;40.73;100400.69;146615;633;45020;-70
2022/08/13 10:35:01;;;;;;;;;9.75;9.50;;;;;32.89;40.58;100397.78;146611;587;45912;-71
2022/08/13 10:38:09;;;;;;;;;;;;;;;;;;;;;
2022/08/13 10:41:25;;;;;;;;;10.75;10.25;;;;;33.18;40.00;100387.53;146610;570;45910;-72
2022/08/13 10:44:26;;;;;;;;;11.75;10.75;;;;;33.28;38.97;100393.31;146614;621;45022;-72
2022/08/13 10:47:21;;;;;;;;;10.50;10.50;;;;;33.21;39.60;100386.47;146614;631;45912;-71
2022/08/13 10:50:19;;;;;;;;;10.25;10.25;;;;;33.13;40.61;100394.06;146618;672;45021;-71
2022/08/13 10:56:48;;;;;;;;;11.25;11.25;;;;;33.00;39.89;100383.91;146615;569;45021;-71
2022/08/13 10:59:59;;;;;;;;;10.00;10.00;;;;;32.88;39.21;100384.44;146612;614;47012;-71
2022/08/13 11:03:01;;;;;;;;;10.75;10.75;;;;;32.66;39.74;100377.38;146617;606;46010;-71
2022/08/13 11:06:08;;;;;;;;;11.25;10.50;;;;;32.43;40.97;100364.09;146612;568;45911;-71
2022/08/13 11:09:12;;;;;;;;;11.75;10.00;;;;;32.16;42.08;100364.38;146611;611;46010;-71
2022/08/13 11:12:25;;;;;;;;;11.00;11.00;;;;;31.91;42.77;100367.25;146606;581;46012;-72
2022/08/13 11:15:33;;;;;;;;;7.25;7.25;;;;;30.87;43.34;100220.63;146617;639;45020;-72
2022/08/13 11:18:35;;;;;;;;;10.75;9.75;;;;;31.63;43.33;100369.34;146612;564;46012;-76
2022/08/13 11:21:36;;;;;;;;;11.00;11.00;;;;;31.61;43.64;100364.03;146615;579;46010;-70
2022/08/13 11:24:30;;;;;;;;;14.25;12.50;;;;;31.65;43.38;100368.34;146611;564;45912;-70
2022/08/13 11:27:31;;;;;;;;;12.00;12.00;;;;;31.59;43.03;100365.91;146611;580;46916;-70
2022/08/13 11:30:27;;;;;;;;;11.00;10.75;;;;;31.54;43.15;100365.22;146611;571;45912;-71
2022/08/13 11:33:30;;;;;;;;;11.00;10.00;;;;;31.58;43.24;100361.47;146610;602;45022;-72
2022/08/13 11:36:23;;;;;;;;;10.00;10.00;;;;;31.50;42.69;100353.78;146609;614;45911;-71
2022/08/13 11:39:22;;;;;;;;;9.25;9.25;;;;;31.19;42.92;100363.97;146615;682;45021;-71
2022/08/13 11:42:23;;;;;;;;;10.00;10.00;;;;;31.03;43.66;100363.69;146611;713;46014;-71
2022/08/13 11:45:20;;;;;;;;;9.75;9.75;;;;;30.87;44.08;100363.38;146616;597;45020;-71
2022/08/13 11:48:20;;;;;;;;;9.75;9.00;;;;;30.74;44.48;100357.59;146611;708;46012;-71
2022/08/13 11:51:12;;;;;;;;;11.50;11.50;;;;;30.58;44.37;100359.97;146618;566;46010;-73
2022/08/13 11:54:13;;;;;;;;;11.50;9.50;;;;;30.50;44.75;100358.50;146609;708;45914;-74
2022/08/13 11:57:14;;;;;;;;;12.25;12.25;;;;;30.50;45.01;100361.19;146611;605;45020;-71
2022/08/13 12:00:11;;;;;;;;;11.75;10.75;;;;;30.37;44.87;100359.00;146610;597;46012;-71
2022/08/13 12:03:12;;;;;;;;;11.50;11.50;;;;;30.28;45.25;100351.31;146618;608;45021;-71
2022/08/13 12:06:19;;;;;;;;;13.50;13.50;;;;;30.24;45.31;100348.78;146605;596;46913;-71
2022/08/13 12:09:12;;;;;;;;;11.00;11.00;;;;;30.24;45.29;100351.44;146605;659;45021;-71
2022/08/13 12:12:12;;;;;;;;;11.25;11.00;;;;;30.24;44.31;100340.75;146602;573;45914;-71
2022/08/13 12:15:13;;;;;;;;;12.25;12.25;;;;;30.22;44.75;100334.56;146604;569;46011;-71
2022/08/13 12:18:08;;;;;;;;;10.00;10.00;;;;;30.14;44.18;100327.69;146601;564;45915;-71
2022/08/13 12:21:08;;;;;;;;;11.25;11.25;;;;;30.27;43.51;100344.19;146601;624;47010;-71
2022/08/13 12:24:00;;;;;;;;;12.25;11.50;;;;;30.25;43.75;100348.75;146601;636;46013;-72
2022/08/13 12:26:56;;;;;;;;;10.50;10.50;;;;;30.17;43.97;100339.19;146604;687;45021;-71
2022/08/13 12:29:57;;;;;;;;;10.25;10.25;;;;;30.14;43.93;100343.72;146601;609;46915;-70
2022/08/13 12:32:49;;;;;;;;;11.50;11.50;;;;;30.18;43.31;100335.59;146606;571;45021;-71
2022/08/13 12:35:47;;;;;;;;;12.50;12.50;;;;;30.25;43.79;100335.37;146601;565;46014;-70
2022/08/13 12:38:49;;;;;;;;;12.75;11.75;;;;;30.30;43.72;100333.38;146606;639;45021;-70
2022/08/13 12:41:42;;;;;;;;;10.00;10.00;;;;;30.32;42.94;100333.34;146601;632;46014;-70
2022/08/13 12:44:42;;;;;;;;;10.50;10.50;;;;;30.22;42.77;100324.78;146600;630;48020;-70
2022/08/13 12:47:40;;;;;;;;;10.50;10.50;;;;;30.23;42.56;100329.19;146602;644;45915;-71
2022/08/13 12:50:39;;;;;;;;;10.50;10.50;;;;;30.28;43.10;100337.03;146606;573;45020;-70
2022/08/13 12:53:36;;;;;;;;;10.50;10.25;;;;;30.28;42.51;100329.00;146602;608;45912;-70
2022/08/13 12:56:37;;;;;;;;;12.00;11.25;;;;;30.22;43.31;100339.91;146603;580;45020;-70
2022/08/13 12:59:34;;;;;;;;;12.00;11.00;;;;;30.12;43.08;100337.53;146601;577;46012;-71
2022/08/13 13:02:29;;;;;;;;;11.50;11.50;;;;;30.12;43.34;100334.00;146607;580;45021;-70
2022/08/13 13:05:27;;;;;;;;;13.00;13.00;;;;;30.21;43.71;100328.34;146602;570;45913;-70
2022/08/13 13:08:44;;;;;;;;;13.75;12.00;;;;;30.33;43.64;100316.34;146604;664;46011;-71
2022/08/13 13:11:39;;;;;;;;;10.50;10.50;;;;;30.43;43.56;100324.91;146601;653;46012;-72
2022/08/13 13:14:42;;;;;;;;;;;;;;;;;;;;;
2022/08/13 13:17:43;;;;;;;;;11.00;10.75;;;;;30.55;43.60;100316.41;146602;686;45911;-71
2022/08/13 13:20:47;;;;;;;;;;;;;;;;;;;;;
2022/08/13 13:23:52;;;;;;;;;9.75;9.75;;;;;30.55;44.73;100311.94;146601;722;45911;-70
2022/08/13 13:27:11;;;;;;;;;11.75;11.75;;;;;30.55;43.80;100313.75;146603;569;46010;-71
2022/08/13 13:30:12;;;;;;;;;11.50;10.25;;;;;30.52;43.70;100305.81;146603;607;45017;-71
2022/08/13 13:33:27;;;;;;;;;11.75;10.50;;;;;30.58;43.57;100302.91;146604;569;46021;-71
2022/08/13 13:36:35;;;;;;;;;11.00;11.00;;;;;30.68;42.59;100300.75;146601;587;46012;-71
2022/08/13 13:39:30;;;;;;;;;12.25;12.00;;;;;30.80;42.20;100303.00;146605;686;45030;-71
2022/08/13 13:42:32;;;;;;;;;12.00;12.00;;;;;30.93;42.34;100298.91;146601;634;46012;-71
2022/08/13 13:45:28;;;;;;;;;13.75;10.50;;;;;31.11;41.22;100304.47;146606;565;45021;-71
2022/08/13 13:48:46;;;;;;;;;9.50;9.25;;;;;31.24;41.80;100285.13;146602;582;45911;-71
2022/08/13 13:51:44;;;;;;;;;10.00;10.00;;;;;31.41;41.61;100287.16;146604;618;46010;-72
2022/08/13 13:54:43;;;;;;;;;11.50;11.50;;;;;31.60;41.29;100281.03;146602;587;45913;-70
2022/08/13 13:57:38;;;;;;;;;10.75;10.25;;;;;31.75;40.50;100275.00;146601;575;46010;-71
2022/08/13 14:01:01;;;;;;;;;11.50;11.50;;;;;31.78;40.33;100266.84;146602;620;45912;-72
2022/08/13 14:03:58;;;;;;;;;10.25;9.50;;;;;31.68;40.10;100268.16;146606;666;45021;-71
2022/08/13 14:07:16;;;;;;;;;12.50;11.00;;;;;31.61;41.13;100266.69;146601;683;45912;-78
2022/08/13 14:10:14;;;;;;;;;12.00;12.00;;;;;30.71;40.63;100137.41;146608;620;45021;-83
2022/08/13 14:13:19;;;;;;;;;9.25;9.00;;;;;31.38;40.77;100262.31;146603;594;45917;-79
2022/08/13 14:16:22;;;;;;;;;9.75;9.75;;;;;31.30;40.72;100255.41;146607;624;45021;-79
2022/08/13 14:19:30;;;;;;;;;10.25;10.25;;;;;31.21;41.54;100253.13;146602;573;46016;-82
2022/08/13 14:22:31;;;;;;;;;11.50;11.50;;;;;31.08;41.38;100256.38;146606;565;45021;-81
2022/08/13 14:25:30;;;;;;;;;12.25;10.25;;;;;30.95;42.04;100247.97;146600;613;46913;-78
2022/08/13 14:28:29;;;;;;;;;9.00;9.00;;;;;30.96;42.72;100245.22;146602;664;46010;-77
2022/08/13 14:31:22;;;;;;;;;13.25;13.25;;;;;31.04;41.75;100244.94;146602;570;45913;-79
2022/08/13 14:34:18;;;;;;;;;9.50;9.50;;;;;31.06;41.95;100249.28;146606;634;45020;-77
2022/08/13 14:37:16;;;;;;;;;10.50;10.50;;;;;31.01;42.48;100245.91;146603;610;45017;-80
2022/08/13 14:40:16;;;;;;;;;10.00;10.00;;;;;30.98;42.41;100243.38;146605;624;46010;-77